LTFE/BJV METAR and TAF weather

Enter ICAO airport designator
Station Type Date Time Source
LTFE METAR 2019/11/18 11:20 UTC NOAA

LTFE 181120Z 15007KT 9999 FEW035 BKN100 23/11 Q1020 NOSIG


Station Type Date Time Source
LTFE Decoded METAR 2019/11/18 11:20 UTC NOAA

Bodrum Milas Airport, Turkey (LTFE) 37-14-53N 027-40-55E
Nov 18, 2019 - 06:20 AM EST / 2019.11.18 1120 UTC
Wind: from the SSE (150 degrees) at 8 MPH (7 KT):0
Visibility: greater than 7 mile(s):0
Sky conditions: mostly cloudy
Temperature: 73 F (23 C)
Dew Point: 51 F (11 C)
Relative Humidity: 46%
Pressure (altimeter): 30.12 in. Hg (1020 hPa)
ob: LTFE 181120Z 15007KT 9999 FEW035 BKN100 23/11 Q1020 NOSIG
cycle: 11

Station Type Date Time Source
LTFE TAF 2019/11/18 12:03 UTC NOAA

TAF LTFE 181040Z 1812/1912 14012KT 9999 FEW035 BKN100
BECMG 1814/1817 VRB02KT CAVOK PROB40 1902/1906 3500 BR
BECMG 1907/1910 FEW035

Example: see airport list